Time;durP1;ratioP1;P1;durP2;ratioP2;P2;SDS_P1;SDS_P2;PMS_P1;PMS_P2;Temp;Humidity;BMP_temperature;BMP_pressure;BME280_temperature;BME280_humidity;BME280_pressure;Samples;Min_cycle;Max_cycle;Signal;HPM_P1;HPM_P2
2023/10/29 00:01:51;;;;;;;1.55;0.90;;;17.60;70.80;;;;;;5031884;28;20040;-66
2023/10/29 00:04:16;;;;;;;3.15;0.90;;;17.60;70.80;;;;;;5026679;28;20049;-65
2023/10/29 00:06:42;;;;;;;1.20;0.73;;;17.60;70.80;;;;;;5035029;28;20056;-65
2023/10/29 00:09:08;;;;;;;1.75;0.90;;;17.60;70.80;;;;;;5035285;28;20029;-66
2023/10/29 00:11:33;;;;;;;2.75;1.00;;;17.60;70.80;;;;;;5035011;28;20123;-66
2023/10/29 00:13:59;;;;;;;2.22;0.60;;;17.60;70.80;;;;;;5036112;28;20021;-65
2023/10/29 00:16:25;;;;;;;3.63;0.77;;;17.60;70.70;;;;;;5032679;28;20033;-65
2023/10/29 00:18:50;;;;;;;1.85;1.00;;;17.60;70.80;;;;;;5038076;28;20506;-66
2023/10/29 00:21:16;;;;;;;1.42;0.77;;;17.60;70.80;;;;;;5014283;28;20651;-66
2023/10/29 00:23:41;;;;;;;2.35;1.73;;;17.60;70.80;;;;;;5039535;28;20033;-65
2023/10/29 00:26:07;;;;;;;1.52;0.60;;;17.60;70.80;;;;;;5013397;28;20029;-66
2023/10/29 00:28:32;;;;;;;1.50;0.80;;;17.60;70.80;;;;;;5021927;28;20104;-66
2023/10/29 00:30:58;;;;;;;1.48;0.80;;;17.60;70.80;;;;;;5016545;28;20037;-66
2023/10/29 00:33:24;;;;;;;1.92;0.60;;;17.60;70.80;;;;;;5020976;28;20476;-66
2023/10/29 00:35:50;;;;;;;2.22;0.90;;;17.60;70.70;;;;;;5021116;28;20030;-66
2023/10/29 00:38:15;;;;;;;0.90;0.68;;;17.60;70.80;;;;;;5016210;28;20052;-66
2023/10/29 00:40:41;;;;;;;1.90;0.70;;;17.60;70.80;;;;;;5025194;28;20088;-65
2023/10/29 00:43:06;;;;;;;1.27;0.63;;;17.60;70.80;;;;;;5016199;28;20042;-66
2023/10/29 00:45:32;;;;;;;2.70;0.93;;;17.60;70.80;;;;;;5025391;28;20025;-65
2023/10/29 00:47:59;;;;;;;0.63;0.60;;;17.60;70.80;;;;;;5020111;28;20497;-65
2023/10/29 00:50:25;;;;;;;1.58;0.70;;;17.60;70.80;;;;;;5023640;28;20037;-66
2023/10/29 00:52:51;;;;;;;1.75;1.08;;;17.60;70.70;;;;;;5013716;28;20026;-66
2023/10/29 00:55:17;;;;;;;0.80;0.70;;;17.60;70.80;;;;;;5023063;28;20029;-66
2023/10/29 00:57:43;;;;;;;1.90;0.80;;;17.60;70.70;;;;;;5025225;28;20033;-66
2023/10/29 01:00:10;;;;;;;1.77;1.13;;;17.60;70.70;;;;;;5014137;28;20259;-66
2023/10/29 01:02:36;;;;;;;1.52;0.80;;;17.60;70.80;;;;;;5018663;28;20408;-65
2023/10/29 01:05:05;;;;;;;1.83;0.80;;;17.60;70.70;;;;;;5024338;28;20079;-65
2023/10/29 01:07:31;;;;;;;1.00;0.82;;;17.60;70.70;;;;;;5024032;28;20087;-65
2023/10/29 01:09:59;;;;;;;1.58;0.68;;;17.60;70.70;;;;;;5013050;28;20104;-65
2023/10/29 01:12:26;;;;;;;2.15;1.17;;;17.60;70.70;;;;;;5020818;28;20381;-66
2023/10/29 01:14:52;;;;;;;1.60;0.73;;;17.60;70.70;;;;;;5021463;28;20021;-65
2023/10/29 01:17:19;;;;;;;2.15;0.65;;;17.60;70.80;;;;;;5022663;28;20025;-66
2023/10/29 01:19:45;;;;;;;1.88;0.82;;;17.60;70.70;;;;;;5019357;28;20106;-65
2023/10/29 01:22:10;;;;;;;1.75;0.90;;;17.60;70.70;;;;;;5016096;28;20555;-65
2023/10/29 01:24:38;;;;;;;0.93;0.70;;;17.60;70.70;;;;;;5010194;28;20022;-65
2023/10/29 01:27:04;;;;;;;0.73;0.63;;;17.60;70.70;;;;;;5020270;28;20101;-66
2023/10/29 01:29:30;;;;;;;1.95;0.70;;;17.60;70.70;;;;;;5013516;28;20034;-65
2023/10/29 01:31:55;;;;;;;2.25;0.75;;;17.60;70.70;;;;;;5018557;28;20030;-66
2023/10/29 01:34:21;;;;;;;1.02;0.70;;;17.60;70.70;;;;;;5018798;28;20059;-66
2023/10/29 01:36:46;;;;;;;1.02;0.80;;;17.60;70.70;;;;;;5019673;28;20038;-66
2023/10/29 01:39:12;;;;;;;1.08;0.90;;;17.60;70.70;;;;;;5022143;28;20377;-66
2023/10/29 01:41:37;;;;;;;1.52;0.80;;;17.60;70.70;;;;;;5013099;28;20029;-65
2023/10/29 01:44:03;;;;;;;1.38;0.47;;;17.60;70.80;;;;;;5016232;28;20036;-65
2023/10/29 01:46:29;;;;;;;1.58;0.80;;;17.60;70.70;;;;;;5018281;28;20559;-66
2023/10/29 01:48:54;;;;;;;1.13;0.73;;;17.60;70.60;;;;;;5023658;28;20032;-65
2023/10/29 01:51:20;;;;;;;2.28;0.70;;;17.60;70.70;;;;;;5012520;28;20472;-66
2023/10/29 01:53:46;;;;;;;1.83;0.60;;;17.60;70.70;;;;;;5018914;28;20075;-66
2023/10/29 01:56:11;;;;;;;0.93;0.57;;;17.60;70.70;;;;;;5023722;28;20037;-66
2023/10/29 01:58:36;;;;;;;2.25;0.70;;;17.60;70.70;;;;;;5012987;28;20522;-66
2023/10/29 02:01:11;;;;;;;2.42;0.80;;;17.60;70.70;;;;;;5017281;28;20033;-66
2023/10/29 02:03:37;;;;;;;1.02;0.68;;;17.60;70.70;;;;;;5012318;28;20159;-66
2023/10/29 02:06:04;;;;;;;1.60;0.80;;;17.60;71.10;;;;;;5017719;28;20026;-66
2023/10/29 02:08:30;;;;;;;1.42;0.60;;;17.60;70.80;;;;;;5018064;28;20045;-65
2023/10/29 02:10:55;;;;;;;0.88;0.60;;;17.60;70.70;;;;;;5023210;28;20543;-64
2023/10/29 02:13:20;;;;;;;3.38;0.70;;;17.60;70.70;;;;;;5021602;28;20061;-63
2023/10/29 02:15:46;;;;;;;1.98;0.80;;;17.60;70.70;;;;;;5019934;28;20036;-66
2023/10/29 02:18:12;;;;;;;1.38;0.68;;;17.60;70.70;;;;;;5019247;28;20022;-63
2023/10/29 02:20:37;;;;;;;0.80;0.50;;;17.60;70.70;;;;;;5013882;28;20049;-67
2023/10/29 02:23:03;;;;;;;1.20;0.55;;;17.60;70.70;;;;;;5010980;28;20117;-65
2023/10/29 02:25:28;;;;;;;1.40;0.68;;;17.60;70.70;;;;;;5011678;28;20079;-66
2023/10/29 02:27:54;;;;;;;2.22;0.90;;;17.60;70.70;;;;;;5022997;28;20611;-66
2023/10/29 02:30:19;;;;;;;0.90;0.63;;;17.60;70.60;;;;;;5017385;28;20034;-66
2023/10/29 02:32:45;;;;;;;1.60;0.80;;;17.60;70.60;;;;;;5022984;28;20112;-65
2023/10/29 02:35:11;;;;;;;1.45;0.90;;;17.60;70.70;;;;;;4992357;28;20504;-65
2023/10/29 02:37:37;;;;;;;1.80;0.88;;;17.60;70.70;;;;;;5007703;28;20117;-65
2023/10/29 02:40:03;;;;;;;2.17;0.50;;;17.60;70.60;;;;;;5009659;28;20122;-66
2023/10/29 02:42:29;;;;;;;1.23;0.50;;;17.60;70.60;;;;;;5015799;28;20085;-66
2023/10/29 02:44:55;;;;;;;0.70;0.63;;;17.60;70.60;;;;;;5022931;28;20165;-66
2023/10/29 02:47:20;;;;;;;1.15;0.80;;;17.50;70.60;;;;;;5015796;28;20045;-66
2023/10/29 02:49:46;;;;;;;1.17;0.65;;;17.50;70.60;;;;;;5020379;28;20116;-66
2023/10/29 02:52:11;;;;;;;0.82;0.60;;;17.60;70.90;;;;;;5027343;28;20029;-66
2023/10/29 02:54:37;;;;;;;1.85;0.80;;;17.60;70.60;;;;;;5023703;28;20034;-66
2023/10/29 02:57:03;;;;;;;1.48;0.50;;;17.50;70.60;;;;;;5024416;28;20517;-65
2023/10/29 02:59:28;;;;;;;1.27;0.70;;;17.50;70.60;;;;;;5020595;28;20037;-65
2023/10/29 03:01:54;;;;;;;1.73;0.80;;;17.60;70.60;;;;;;5008850;28;20282;-65
2023/10/29 03:04:19;;;;;;;1.83;0.68;;;17.60;70.60;;;;;;5027251;28;20507;-65
2023/10/29 03:06:45;;;;;;;1.02;0.50;;;17.50;70.60;;;;;;5021652;28;20111;-66
2023/10/29 03:09:11;;;;;;;1.15;0.60;;;17.50;70.60;;;;;;5016253;28;20034;-66
2023/10/29 03:11:36;;;;;;;0.95;0.60;;;17.60;70.60;;;;;;5012530;28;20033;-66
2023/10/29 03:14:02;;;;;;;1.15;0.70;;;17.60;70.70;;;;;;5008223;28;20495;-66
2023/10/29 03:16:28;;;;;;;1.05;0.50;;;17.60;70.60;;;;;;5006471;28;20033;-65
2023/10/29 03:18:54;;;;;;;1.23;0.60;;;17.50;70.60;;;;;;5014533;28;20022;-66
2023/10/29 03:21:20;;;;;;;1.65;0.55;;;17.60;70.60;;;;;;5020236;28;20017;-66
2023/10/29 03:23:45;;;;;;;1.15;0.75;;;17.60;70.60;;;;;;5017701;28;20034;-66
2023/10/29 03:26:11;;;;;;;1.05;0.65;;;17.60;70.60;;;;;;5014741;28;20048;-65
2023/10/29 03:28:37;;;;;;;1.92;0.80;;;17.60;70.60;;;;;;5023464;28;20034;-66
2023/10/29 03:31:12;;;;;;;1.25;0.68;;;17.50;70.50;;;;;;5018778;28;20432;-64
2023/10/29 03:33:38;;;;;;;2.15;0.50;;;17.60;70.60;;;;;;5022929;28;20037;-66
2023/10/29 03:36:06;;;;;;;1.13;0.73;;;17.50;70.50;;;;;;5026441;28;20378;-64
2023/10/29 03:38:32;;;;;;;1.52;0.80;;;17.50;70.60;;;;;;5026085;28;20136;-65
2023/10/29 03:40:58;;;;;;;0.98;0.50;;;17.50;70.60;;;;;;5024259;28;20121;-66
2023/10/29 03:43:23;;;;;;;0.93;0.57;;;17.50;70.60;;;;;;5024355;28;20145;-66
2023/10/29 03:45:49;;;;;;;1.65;0.60;;;17.50;70.60;;;;;;5020379;28;20109;-65
2023/10/29 03:48:15;;;;;;;1.58;0.60;;;17.50;70.50;;;;;;5023400;28;20515;-64
2023/10/29 03:50:41;;;;;;;0.80;0.60;;;17.50;71.20;;;;;;5024500;28;20490;-66
2023/10/29 03:53:07;;;;;;;1.05;0.50;;;17.50;70.60;;;;;;5007225;28;20116;-65
2023/10/29 03:55:36;;;;;;;1.45;0.60;;;17.50;70.60;;;;;;5022647;28;20056;-64
2023/10/29 03:58:01;;;;;;;1.23;0.60;;;17.50;70.60;;;;;;5021801;28;20034;-60
2023/10/29 04:00:27;;;;;;;0.70;0.50;;;17.50;70.50;;;;;;5017963;28;20036;-66
2023/10/29 04:02:52;;;;;;;1.23;0.85;;;17.60;70.60;;;;;;5018848;28;20456;-65
2023/10/29 04:05:18;;;;;;;1.02;0.65;;;17.50;70.50;;;;;;5009443;28;20484;-66
2023/10/29 04:07:43;;;;;;;1.00;0.60;;;17.50;70.60;;;;;;5012077;28;20041;-65
2023/10/29 04:10:09;;;;;;;1.23;0.70;;;17.50;70.50;;;;;;5018534;28;20037;-66
2023/10/29 04:12:35;;;;;;;0.40;0.40;;;17.50;70.60;;;;;;5016118;28;20038;-65
2023/10/29 04:15:00;;;;;;;0.57;0.50;;;17.50;70.60;;;;;;5008728;28;20099;-66
2023/10/29 04:17:25;;;;;;;1.80;0.80;;;17.50;70.50;;;;;;5015941;28;20078;-66
2023/10/29 04:19:51;;;;;;;2.42;0.52;;;17.50;70.50;;;;;;5018657;28;20417;-65
2023/10/29 04:22:17;;;;;;;1.88;0.80;;;17.50;70.50;;;;;;5025372;28;20040;-65
2023/10/29 04:24:43;;;;;;;0.80;0.50;;;17.50;70.50;;;;;;5023392;28;20037;-66
2023/10/29 04:27:08;;;;;;;1.13;0.70;;;17.50;70.60;;;;;;5022915;28;20048;-65
2023/10/29 04:29:34;;;;;;;1.55;0.50;;;17.50;70.50;;;;;;5022524;28;20376;-62
2023/10/29 04:32:00;;;;;;;1.05;0.55;;;17.50;70.50;;;;;;5019615;28;20022;-66
2023/10/29 04:34:25;;;;;;;1.27;0.70;;;17.50;70.50;;;;;;5016504;28;20113;-66
2023/10/29 04:36:52;;;;;;;0.95;0.63;;;17.50;70.50;;;;;;5023807;28;20179;-66
2023/10/29 04:39:20;;;;;;;0.65;0.50;;;17.50;70.50;;;;;;5025332;28;20036;-66
2023/10/29 04:41:48;;;;;;;1.67;0.50;;;17.50;70.50;;;;;;5022609;28;20511;-65
2023/10/29 04:44:14;;;;;;;2.08;0.50;;;17.50;70.50;;;;;;5011266;28;20041;-66
2023/10/29 04:46:40;;;;;;;1.92;0.55;;;17.50;70.50;;;;;;5017469;28;20026;-66
2023/10/29 04:49:05;;;;;;;0.77;0.60;;;17.50;70.50;;;;;;5014615;28;20550;-66
2023/10/29 04:51:31;;;;;;;1.27;0.65;;;17.50;70.50;;;;;;5018706;28;20033;-66
2023/10/29 04:53:56;;;;;;;1.08;0.50;;;17.50;70.50;;;;;;5017970;28;20447;-66
2023/10/29 04:56:22;;;;;;;0.88;0.43;;;17.50;70.40;;;;;;5024067;28;20083;-66
2023/10/29 04:58:47;;;;;;;1.08;0.55;;;17.50;70.50;;;;;;5026438;28;20030;-65
2023/10/29 05:01:13;;;;;;;1.02;0.50;;;17.50;70.50;;;;;;5015788;28;20120;-66
2023/10/29 05:03:39;;;;;;;1.40;1.08;;;17.50;70.50;;;;;;5023571;28;20132;-66
2023/10/29 05:06:05;;;;;;;1.33;0.75;;;17.50;70.50;;;;;;5018869;28;20029;-66
2023/10/29 05:08:31;;;;;;;0.47;0.47;;;17.50;70.50;;;;;;5016716;28;20037;-65
2023/10/29 05:10:56;;;;;;;1.10;0.80;;;17.50;70.50;;;;;;5025256;28;20022;-66
2023/10/29 05:13:22;;;;;;;0.75;0.60;;;17.50;70.40;;;;;;5015314;28;20100;-67
2023/10/29 05:15:47;;;;;;;1.38;0.77;;;17.50;70.40;;;;;;5026347;28;20033;-66
2023/10/29 05:18:13;;;;;;;0.65;0.40;;;17.50;70.40;;;;;;5024847;28;20068;-65
2023/10/29 05:20:38;;;;;;;1.25;0.60;;;17.50;70.40;;;;;;5023362;28;20029;-67
2023/10/29 05:23:05;;;;;;;0.40;0.40;;;17.50;70.40;;;;;;5024984;28;20040;-66
2023/10/29 05:25:30;;;;;;;0.68;0.50;;;17.50;70.40;;;;;;5023954;28;20038;-65
2023/10/29 05:27:56;;;;;;;0.63;0.35;;;17.50;70.40;;;;;;5025645;28;20036;-66
2023/10/29 05:30:22;;;;;;;1.05;0.70;;;17.50;70.50;;;;;;5022881;28;20403;-67
2023/10/29 05:32:48;;;;;;;0.68;0.47;;;17.50;70.40;;;;;;5025642;28;20040;-60
2023/10/29 05:35:13;;;;;;;1.02;0.43;;;17.50;70.40;;;;;;5024781;28;20060;-65
2023/10/29 05:37:39;;;;;;;1.20;0.85;;;17.50;70.40;;;;;;5024931;28;20037;-66
2023/10/29 05:40:07;;;;;;;0.80;0.50;;;17.50;70.50;;;;;;5024441;28;20033;-65
2023/10/29 05:42:33;;;;;;;0.60;0.60;;;17.50;70.40;;;;;;5024397;28;20029;-64
2023/10/29 05:44:59;;;;;;;0.60;0.50;;;17.50;70.40;;;;;;5025141;28;20289;-66
2023/10/29 05:47:24;;;;;;;0.93;0.60;;;17.50;70.40;;;;;;5024439;28;20462;-66
2023/10/29 05:49:50;;;;;;;0.98;0.50;;;17.50;70.50;;;;;;5025054;28;20496;-66
2023/10/29 05:52:15;;;;;;;0.77;0.50;;;17.50;70.40;;;;;;5025539;28;20025;-67
2023/10/29 05:54:41;;;;;;;0.70;0.60;;;17.50;70.40;;;;;;5023470;28;20408;-66
2023/10/29 05:57:07;;;;;;;0.80;0.47;;;17.50;70.40;;;;;;5026272;28;20052;-65
2023/10/29 05:59:33;;;;;;;0.70;0.55;;;17.50;70.40;;;;;;5023957;28;20488;-66
2023/10/29 06:01:59;;;;;;;1.55;0.60;;;17.50;70.40;;;;;;5024604;28;20459;-65
2023/10/29 06:04:25;;;;;;;0.77;0.40;;;17.50;70.50;;;;;;5023289;28;20036;-66
2023/10/29 06:06:50;;;;;;;0.60;0.40;;;17.50;70.40;;;;;;5024470;28;20033;-65
2023/10/29 06:09:16;;;;;;;0.85;0.43;;;17.50;70.40;;;;;;5023948;28;20083;-66
2023/10/29 06:11:42;;;;;;;1.42;0.63;;;17.50;70.40;;;;;;5022946;28;20038;-67
2023/10/29 06:14:08;;;;;;;1.10;0.60;;;17.50;70.40;;;;;;5023612;28;20355;-65
2023/10/29 06:16:34;;;;;;;0.60;0.43;;;17.50;70.40;;;;;;5023696;28;20033;-67
2023/10/29 06:19:02;;;;;;;0.60;0.40;;;17.50;70.40;;;;;;5024736;28;20025;-66
2023/10/29 06:21:28;;;;;;;0.75;0.50;;;17.50;70.40;;;;;;5022965;28;20032;-65
2023/10/29 06:23:54;;;;;;;1.35;0.68;;;17.50;70.40;;;;;;5025610;28;20120;-66
2023/10/29 06:26:19;;;;;;;0.90;0.50;;;17.50;70.40;;;;;;5030938;28;20108;-65
2023/10/29 06:28:45;;;;;;;0.45;0.35;;;17.50;70.40;;;;;;5013842;28;20591;-66
2023/10/29 06:31:10;;;;;;;1.65;0.47;;;17.50;70.40;;;;;;5030462;28;20025;-66
2023/10/29 06:33:37;;;;;;;0.82;0.38;;;17.50;70.40;;;;;;5030816;28;20480;-65
2023/10/29 06:36:03;;;;;;;0.93;0.50;;;17.50;70.40;;;;;;5030658;28;20056;-66
2023/10/29 06:38:29;;;;;;;1.20;0.70;;;17.50;70.40;;;;;;5030644;28;20514;-65
2023/10/29 06:40:55;;;;;;;1.83;0.75;;;17.50;70.40;;;;;;5029832;28;20060;-65
2023/10/29 06:43:20;;;;;;;0.68;0.40;;;17.50;71.00;;;;;;5031247;28;20034;-65
2023/10/29 06:45:46;;;;;;;0.95;0.50;;;17.50;70.40;;;;;;5028594;28;20041;-67
2023/10/29 06:48:11;;;;;;;1.25;0.60;;;17.50;70.40;;;;;;5031643;28;20376;-65
2023/10/29 06:50:37;;;;;;;2.05;0.60;;;17.50;70.40;;;;;;5029242;28;20565;-66
2023/10/29 06:53:03;;;;;;;1.02;0.50;;;17.50;70.40;;;;;;5029738;28;20570;-66
2023/10/29 06:55:28;;;;;;;1.05;0.65;;;17.50;70.40;;;;;;5029719;28;20102;-65
2023/10/29 06:57:54;;;;;;;1.63;0.73;;;17.50;70.30;;;;;;5030570;28;20067;-65
2023/10/29 07:00:19;;;;;;;0.57;0.50;;;17.50;70.40;;;;;;5031187;28;20072;-64
2023/10/29 07:02:45;;;;;;;0.55;0.40;;;17.50;70.40;;;;;;5030114;28;20056;-66
2023/10/29 07:05:10;;;;;;;1.15;0.60;;;17.50;70.40;;;;;;5029957;28;20466;-66
2023/10/29 07:07:36;;;;;;;0.82;0.60;;;17.50;70.40;;;;;;5030726;28;20034;-65
2023/10/29 07:10:04;;;;;;;0.77;0.50;;;17.50;70.40;;;;;;5028776;28;20372;-66
2023/10/29 07:12:31;;;;;;;1.50;0.55;;;17.50;71.10;;;;;;4995707;28;20034;-65
2023/10/29 07:14:57;;;;;;;1.05;0.50;;;17.50;70.40;;;;;;5029726;28;20400;-66
2023/10/29 07:17:23;;;;;;;1.15;0.50;;;17.50;70.50;;;;;;5029625;28;20057;-65
2023/10/29 07:19:50;;;;;;;1.25;0.82;;;17.50;70.50;;;;;;5029695;28;20033;-63
2023/10/29 07:22:16;;;;;;;2.65;0.63;;;17.50;70.50;;;;;;5029086;28;20377;-64
2023/10/29 07:24:41;;;;;;;1.17;0.68;;;17.50;70.40;;;;;;5028709;28;20052;-64
2023/10/29 07:27:07;;;;;;;1.15;0.63;;;17.50;70.40;;;;;;5013532;28;20038;-65
2023/10/29 07:29:33;;;;;;;0.98;0.60;;;17.50;70.40;;;;;;5029259;28;20029;-63
2023/10/29 07:31:58;;;;;;;1.95;0.40;;;17.50;70.40;;;;;;5028556;28;20030;-64
2023/10/29 07:34:24;;;;;;;1.55;0.47;;;17.50;70.40;;;;;;5030576;28;20087;-64
2023/10/29 07:36:49;;;;;;;1.33;0.32;;;17.50;70.40;;;;;;5027007;28;20025;-64
2023/10/29 07:39:15;;;;;;;1.88;0.63;;;17.50;70.40;;;;;;5008476;28;20424;-64
2023/10/29 07:41:40;;;;;;;0.80;0.50;;;17.50;70.40;;;;;;5024529;28;20057;-65
2023/10/29 07:44:06;;;;;;;0.50;0.40;;;17.50;70.40;;;;;;5027672;28;20030;-64
2023/10/29 07:46:32;;;;;;;0.60;0.40;;;17.50;70.40;;;;;;5024759;28;20021;-64
2023/10/29 07:48:57;;;;;;;0.93;0.60;;;17.50;70.40;;;;;;5027087;28;20531;-65
2023/10/29 07:51:23;;;;;;;1.50;0.40;;;17.50;70.40;;;;;;5025442;28;20099;-65
2023/10/29 07:53:50;;;;;;;1.15;0.75;;;17.50;70.40;;;;;;5027094;28;20533;-62
2023/10/29 07:56:16;;;;;;;1.10;0.88;;;17.50;70.40;;;;;;5025082;28;20021;-64
2023/10/29 07:58:42;;;;;;;1.20;0.70;;;17.50;70.30;;;;;;5024865;28;20064;-65
2023/10/29 08:01:15;;;;;;;1.75;0.90;;;17.50;70.40;;;;;;5008372;28;20072;-66
2023/10/29 08:03:45;;;;;;;1.10;0.60;;;17.50;70.40;;;;;;5025351;28;20089;-63
2023/10/29 08:06:11;;;;;;;2.40;1.02;;;17.50;70.30;;;;;;5025061;28;20033;-64
2023/10/29 08:08:38;;;;;;;1.60;1.00;;;17.50;70.30;;;;;;5024987;28;20664;-64
2023/10/29 08:11:03;;;;;;;2.22;1.10;;;17.50;70.40;;;;;;5017928;28;20568;-63
2023/10/29 08:13:29;;;;;;;2.15;1.55;;;17.50;70.40;;;;;;5017461;28;20038;-64
2023/10/29 08:15:55;;;;;;;2.40;1.42;;;17.50;70.50;;;;;;5020097;28;20070;-68
2023/10/29 08:18:21;;;;;;;3.33;1.70;;;17.50;70.50;;;;;;5022573;28;20029;-64
2023/10/29 08:20:46;;;;;;;3.22;1.52;;;17.50;70.60;;;;;;5005018;28;20484;-65
2023/10/29 08:23:12;;;;;;;4.78;2.20;;;17.50;70.50;;;;;;5022887;28;20500;-65
2023/10/29 08:25:38;;;;;;;4.57;1.70;;;17.50;70.60;;;;;;5019985;28;20076;-64
2023/10/29 08:28:06;;;;;;;7.32;2.20;;;17.50;70.60;;;;;;5020420;28;20263;-64
2023/10/29 08:30:31;;;;;;;5.22;2.28;;;17.50;70.60;;;;;;5020217;28;20038;-65
2023/10/29 08:32:57;;;;;;;6.95;2.28;;;17.50;70.50;;;;;;5019801;28;20036;-64
2023/10/29 08:35:23;;;;;;;5.32;2.42;;;17.50;70.60;;;;;;5019497;28;20033;-65
2023/10/29 08:37:48;;;;;;;6.15;2.97;;;17.50;70.50;;;;;;5019603;28;20088;-65
2023/10/29 08:40:14;;;;;;;6.13;2.58;;;17.50;70.50;;;;;;5018605;28;20035;-65
2023/10/29 08:42:40;;;;;;;6.65;3.05;;;17.50;70.80;;;;;;5017828;28;20030;-64
2023/10/29 08:45:05;;;;;;;5.88;2.80;;;17.50;70.50;;;;;;5023085;28;20040;-64
2023/10/29 08:47:31;;;;;;;7.40;3.03;;;17.50;70.50;;;;;;5020611;28;20037;-64
2023/10/29 08:49:57;;;;;;;7.35;2.53;;;17.50;70.50;;;;;;5007009;28;20071;-62
2023/10/29 08:52:23;;;;;;;6.38;3.08;;;17.50;70.50;;;;;;5020975;28;20096;-65
2023/10/29 08:54:49;;;;;;;4.80;2.45;;;17.50;70.60;;;;;;5021230;28;20065;-66
2023/10/29 08:57:15;;;;;;;6.72;2.83;;;17.50;70.50;;;;;;5019690;28;20392;-65
2023/10/29 08:59:41;;;;;;;5.40;3.03;;;17.50;70.60;;;;;;5019844;28;20040;-64
2023/10/29 09:02:07;;;;;;;5.22;2.70;;;17.50;70.60;;;;;;5018405;28;20300;-65
2023/10/29 09:04:40;;;;;;;4.68;2.70;;;17.50;70.50;;;;;;5015930;28;20044;-63
2023/10/29 09:07:07;;;;;;;8.60;3.60;;;17.60;70.50;;;;;;5016332;28;20038;-66
2023/10/29 09:09:32;;;;;;;7.55;3.25;;;17.60;70.50;;;;;;5018803;28;20076;-64
2023/10/29 09:11:58;;;;;;;7.90;3.00;;;17.50;70.40;;;;;;5018942;28;20029;-64
2023/10/29 09:14:24;;;;;;;6.63;3.42;;;17.60;70.40;;;;;;5021229;28;20026;-65
2023/10/29 09:16:49;;;;;;;6.50;3.15;;;17.60;70.40;;;;;;5005130;28;20037;-63
2023/10/29 09:19:16;;;;;;;4.63;2.50;;;17.60;70.40;;;;;;5020210;28;20040;-62
2023/10/29 09:21:41;;;;;;;6.55;3.10;;;17.60;70.40;;;;;;5020120;28;20080;-65
2023/10/29 09:24:07;;;;;;;5.63;2.92;;;17.60;70.40;;;;;;5003627;28;20059;-62
2023/10/29 09:26:33;;;;;;;5.57;2.90;;;17.60;70.30;;;;;;5018818;28;20022;-65
2023/10/29 09:29:02;;;;;;;5.93;2.83;;;17.60;70.30;;;;;;5018672;28;20083;-62
2023/10/29 09:31:28;;;;;;;6.75;3.15;;;17.60;70.30;;;;;;5018284;28;20037;-66
2023/10/29 09:33:54;;;;;;;5.00;2.78;;;17.60;70.20;;;;;;5018664;28;20037;-65
2023/10/29 09:36:20;;;;;;;5.47;3.05;;;17.60;70.20;;;;;;5020144;28;20059;-66
2023/10/29 09:38:46;;;;;;;6.43;3.20;;;17.60;70.20;;;;;;5016620;28;20042;-64
2023/10/29 09:41:19;;;;;;;6.85;3.45;;;17.60;70.20;;;;;;5021253;28;20504;-64
2023/10/29 09:43:46;;;;;;;4.68;2.85;;;17.60;70.10;;;;;;5019718;28;20105;-64
2023/10/29 09:46:12;;;;;;;7.13;2.63;;;17.60;70.20;;;;;;5018081;28;20064;-64
2023/10/29 09:48:39;;;;;;;7.88;3.58;;;17.60;70.20;;;;;;5019188;28;20087;-64
2023/10/29 09:51:06;;;;;;;7.55;2.65;;;17.60;70.10;;;;;;5018711;28;20038;-65
2023/10/29 09:53:36;;;;;;;6.63;2.90;;;17.60;70.10;;;;;;5018652;28;20041;-64
2023/10/29 09:56:02;;;;;;;5.75;3.15;;;17.60;70.00;;;;;;5019127;28;20098;-64
2023/10/29 09:58:28;;;;;;;4.72;3.00;;;17.60;70.00;;;;;;5016586;28;20124;-64
2023/10/29 10:00:54;;;;;;;5.25;2.65;;;17.60;70.00;;;;;;5015297;28;20392;-64
2023/10/29 10:03:24;;;;;;;4.60;2.65;;;17.60;70.00;;;;;;5014774;28;20029;-65
2023/10/29 10:05:50;;;;;;;8.55;2.60;;;17.60;69.90;;;;;;5018661;28;20050;-64
2023/10/29 10:08:23;;;;;;;4.55;2.92;;;17.60;69.90;;;;;;5018428;28;20568;-64
2023/10/29 10:10:49;;;;;;;4.13;2.33;;;17.60;69.80;;;;;;5018611;28;20029;-66
2023/10/29 10:13:15;;;;;;;5.60;2.47;;;17.60;69.80;;;;;;5021456;28;20043;-65
2023/10/29 10:15:41;;;;;;;7.30;2.60;;;17.60;69.70;;;;;;5019611;28;20022;-65
2023/10/29 10:18:06;;;;;;;3.90;2.20;;;17.60;69.70;;;;;;5017240;28;20522;-64
2023/10/29 10:20:33;;;;;;;4.47;2.40;;;17.60;69.70;;;;;;5019684;28;20156;-65
2023/10/29 10:23:01;;;;;;;3.85;2.20;;;17.60;70.30;;;;;;5019269;28;20034;-63
2023/10/29 10:25:27;;;;;;;4.70;2.20;;;17.60;69.60;;;;;;5017751;28;20041;-64
2023/10/29 10:27:55;;;;;;;3.72;2.50;;;17.60;69.50;;;;;;5013268;28;20042;-65
2023/10/29 10:30:25;;;;;;;3.53;2.13;;;17.60;69.50;;;;;;5015027;28;20034;-63
2023/10/29 10:32:51;;;;;;;3.60;1.90;;;17.60;69.50;;;;;;5015242;28;20115;-64
2023/10/29 10:35:17;;;;;;;3.80;2.33;;;17.60;69.50;;;;;;5016348;28;20500;-64
2023/10/29 10:37:53;;;;;;;6.57;2.35;;;17.60;69.40;;;;;;5017451;28;20038;-64
2023/10/29 10:40:24;;;;;;;3.33;2.10;;;17.60;69.40;;;;;;5019004;28;20037;-64
2023/10/29 10:42:56;;;;;;;3.90;2.30;;;17.60;69.40;;;;;;5018187;28;20433;-64
2023/10/29 10:45:26;;;;;;;3.67;2.03;;;17.60;69.30;;;;;;5008593;28;20025;-65
2023/10/29 10:48:00;;;;;;;4.07;1.75;;;17.60;69.30;;;;;;5015676;28;20044;-64
2023/10/29 10:50:27;;;;;;;6.25;2.50;;;17.60;69.30;;;;;;4999539;28;20167;-64
2023/10/29 10:52:52;;;;;;;4.00;1.92;;;17.60;69.30;;;;;;5018401;28;20037;-64
2023/10/29 10:55:19;;;;;;;6.53;2.17;;;17.60;69.30;;;;;;5017722;28;20048;-64
2023/10/29 10:57:47;;;;;;;3.45;1.83;;;17.60;69.20;;;;;;5019129;28;21218;-63
2023/10/29 11:00:13;;;;;;;4.57;1.80;;;17.60;69.30;;;;;;5016346;28;20304;-64
2023/10/29 11:02:40;;;;;;;4.30;2.20;;;17.60;69.20;;;;;;5020060;28;20041;-64
2023/10/29 11:05:10;;;;;;;3.15;1.92;;;17.60;69.20;;;;;;5018731;28;20037;-64
2023/10/29 11:07:38;;;;;;;4.47;1.67;;;17.60;69.20;;;;;;5020817;28;20088;-65
2023/10/29 11:10:05;;;;;;;4.80;2.03;;;17.60;69.20;;;;;;5018686;28;20400;-59
2023/10/29 11:12:35;;;;;;;6.15;1.65;;;17.60;69.10;;;;;;5023088;28;20152;-65
2023/10/29 11:15:23;;;;;;;4.25;1.70;;;17.60;69.10;;;;;;5025099;28;20105;-64
2023/10/29 11:18:01;;;;;;;4.20;1.40;;;17.60;69.10;;;;;;5023905;28;20026;-64
2023/10/29 11:20:52;;;;;;;2.83;1.70;;;17.60;69.10;;;;;;5023923;28;20030;-64
2023/10/29 11:23:28;;;;;;;3.65;1.40;;;17.60;69.00;;;;;;5026410;28;20089;-66
2023/10/29 11:26:22;;;;;;;3.75;1.33;;;17.60;69.00;;;;;;5024447;28;20026;-65
2023/10/29 11:28:52;;;;;;;4.30;1.40;;;17.60;69.00;;;;;;5019566;28;20034;-62
2023/10/29 11:31:22;;;;;;;2.17;1.23;;;17.60;69.00;;;;;;5020942;28;20491;-64
2023/10/29 11:33:56;;;;;;;2.70;1.55;;;17.70;69.10;;;;;;5020808;28;20068;-64
2023/10/29 11:36:35;;;;;;;2.03;1.20;;;17.60;69.00;;;;;;5022726;28;20026;-65
2023/10/29 11:39:16;;;;;;;2.45;1.42;;;17.60;69.00;;;;;;5009418;28;20038;-66
2023/10/29 11:41:43;;;;;;;5.70;1.27;;;17.60;69.00;;;;;;5020879;28;20036;-65
2023/10/29 11:44:18;;;;;;;3.13;1.40;;;17.60;69.00;;;;;;5020241;28;20057;-64
2023/10/29 11:46:58;;;;;;;2.38;1.55;;;17.60;69.00;;;;;;5020611;28;20396;-65
2023/10/29 11:49:25;;;;;;;1.90;1.05;;;17.60;69.00;;;;;;5020521;28;20044;-65
2023/10/29 11:51:56;;;;;;;2.90;1.60;;;17.60;68.90;;;;;;5021624;28;20032;-63
2023/10/29 11:54:22;;;;;;;1.38;1.00;;;17.60;69.00;;;;;;5019646;28;20038;-58
2023/10/29 11:56:50;;;;;;;4.32;1.20;;;17.60;68.90;;;;;;5018365;28;20448;-66
2023/10/29 11:59:15;;;;;;;2.10;1.30;;;17.60;69.00;;;;;;5023697;28;20129;-65
2023/10/29 12:01:47;;;;;;;2.05;1.58;;;17.60;69.10;;;;;;5020800;28;20120;-64
2023/10/29 12:04:12;;;;;;;3.88;1.40;;;17.60;69.10;;;;;;5021404;28;20025;-61
2023/10/29 12:06:43;;;;;;;1.70;1.05;;;17.60;69.10;;;;;;5005461;28;20041;-65
2023/10/29 12:09:20;;;;;;;2.28;1.25;;;17.70;69.20;;;;;;5021771;28;20030;-58
2023/10/29 12:11:49;;;;;;;1.92;1.00;;;17.70;69.10;;;;;;5020760;28;20725;-65
2023/10/29 12:14:15;;;;;;;1.92;0.90;;;17.70;69.10;;;;;;5019297;28;20496;-65
2023/10/29 12:16:41;;;;;;;3.70;1.42;;;17.70;69.10;;;;;;5020000;28;20121;-64
2023/10/29 12:19:07;;;;;;;3.08;1.30;;;17.60;69.10;;;;;;5022034;28;20150;-65
2023/10/29 12:21:33;;;;;;;3.75;1.67;;;17.60;69.10;;;;;;5022382;28;20109;-65
2023/10/29 12:23:58;;;;;;;2.92;1.52;;;17.60;69.10;;;;;;5002543;28;20041;-64
2023/10/29 12:26:27;;;;;;;3.08;2.00;;;17.70;69.10;;;;;;5022627;28;20053;-64
2023/10/29 12:28:53;;;;;;;6.93;2.20;;;17.70;69.10;;;;;;5008892;28;20037;-64
2023/10/29 12:31:26;;;;;;;3.63;2.45;;;17.60;69.00;;;;;;5020846;28;20412;-65
2023/10/29 12:33:59;;;;;;;4.32;2.65;;;17.70;69.00;;;;;;5019610;28;20029;-65
2023/10/29 12:36:26;;;;;;;44.35;20.45;;;17.60;69.00;;;;;;5020130;28;20037;-70
2023/10/29 12:38:53;;;;;;;59.35;29.98;;;17.70;69.50;;;;;;5020066;28;20048;-66
2023/10/29 12:41:21;;;;;;;131.05;63.83;;;17.70;70.00;;;;;;5019840;28;20541;-67
2023/10/29 12:43:52;;;;;;;164.27;83.03;;;17.70;70.20;;;;;;5018703;28;20038;-66